createdAt,value
2023-03-29T00:02:02.262Z,7.65
2023-03-29T00:04:29.087Z,7.70
2023-03-29T00:06:55.996Z,7.63
2023-03-29T00:09:23.488Z,7.66
2023-03-29T00:11:50.161Z,7.63
2023-03-29T00:14:16.796Z,7.66
2023-03-29T00:16:45.109Z,7.52
2023-03-29T00:19:11.968Z,7.48
2023-03-29T00:21:38.607Z,7.51
2023-03-29T00:24:05.661Z,7.45
2023-03-29T00:26:32.292Z,7.36
2023-03-29T00:28:59.000Z,7.47
2023-03-29T00:31:26.523Z,7.62
2023-03-29T00:33:53.278Z,7.64
2023-03-29T00:36:19.989Z,7.67
2023-03-29T00:38:46.708Z,7.58
2023-03-29T00:41:14.126Z,7.55
2023-03-29T00:43:57.483Z,7.58
2023-03-29T00:46:26.296Z,7.47
2023-03-29T00:48:58.038Z,7.45
2023-03-29T00:51:27.848Z,7.47
2023-03-29T00:53:58.726Z,7.51
2023-03-29T00:56:35.016Z,7.45
2023-03-29T00:59:06.238Z,7.43
2023-03-29T01:01:42.364Z,7.51
2023-03-29T01:06:57.175Z,7.35
2023-03-29T01:09:27.406Z,7.41
2023-03-29T01:11:57.584Z,7.33
2023-03-29T01:14:38.691Z,7.21
2023-03-29T01:17:06.771Z,7.07
2023-03-29T01:19:42.477Z,6.99
2023-03-29T01:22:38.922Z,7.08
2023-03-29T01:25:27.025Z,6.93
2023-03-29T01:28:02.670Z,6.92
2023-03-29T01:30:33.570Z,6.85
2023-03-29T01:33:10.730Z,6.88
2023-03-29T01:35:44.941Z,6.84
2023-03-29T01:38:21.695Z,6.83
2023-03-29T01:40:48.423Z,6.78
2023-03-29T01:43:20.922Z,6.78
2023-03-29T01:45:54.816Z,6.93
2023-03-29T01:48:40.941Z,6.88
2023-03-29T01:51:13.693Z,6.74
2023-03-29T01:53:57.632Z,6.79
2023-03-29T01:56:28.428Z,6.68
2023-03-29T01:59:04.172Z,6.66
2023-03-29T02:01:40.612Z,6.59
2023-03-29T02:04:13.474Z,6.56
2023-03-29T02:06:42.139Z,6.54
2023-03-29T02:09:09.316Z,6.38
2023-03-29T02:11:36.524Z,6.37
2023-03-29T02:14:03.657Z,6.46
2023-03-29T02:16:36.556Z,6.51
2023-03-29T02:19:04.069Z,6.45
2023-03-29T02:21:40.112Z,6.56
2023-03-29T02:24:11.511Z,6.62
2023-03-29T02:26:38.252Z,6.58
2023-03-29T02:29:05.061Z,6.59
2023-03-29T02:31:53.852Z,6.60
2023-03-29T02:34:27.539Z,6.59
2023-03-29T02:36:59.097Z,6.56
2023-03-29T02:39:28.353Z,6.56
2023-03-29T02:41:56.299Z,6.71
2023-03-29T02:44:27.282Z,6.71
2023-03-29T02:49:32.816Z,6.68
2023-03-29T02:52:09.091Z,6.56
2023-03-29T02:57:10.589Z,6.56
2023-03-29T02:59:38.850Z,6.60
2023-03-29T03:04:37.880Z,6.62
2023-03-29T03:07:07.793Z,6.62
2023-03-29T03:09:34.594Z,6.68
2023-03-29T03:12:01.368Z,6.82
2023-03-29T03:14:28.493Z,6.88
2023-03-29T03:19:29.137Z,6.68
2023-03-29T03:21:56.278Z,6.85
2023-03-29T03:24:23.041Z,6.92
2023-03-29T03:26:50.230Z,6.90
2023-03-29T03:29:17.373Z,6.91
2023-03-29T03:34:16.029Z,6.94
2023-03-29T03:36:42.926Z,7.01
2023-03-29T03:39:09.869Z,7.10
2023-03-29T03:41:36.697Z,7.09
2023-03-29T03:44:03.430Z,7.19
2023-03-29T03:46:30.108Z,7.20
2023-03-29T03:48:56.823Z,7.24
2023-03-29T03:51:23.639Z,7.21
2023-03-29T03:56:30.143Z,7.38
2023-03-29T03:58:57.317Z,7.38
2023-03-29T04:01:24.719Z,7.34
2023-03-29T04:03:51.696Z,7.47
2023-03-29T04:06:18.846Z,7.52
2023-03-29T04:08:45.771Z,7.58
2023-03-29T04:11:12.502Z,7.53
2023-03-29T04:13:39.256Z,7.48
2023-03-29T04:18:39.708Z,7.61
2023-03-29T04:21:06.542Z,7.63
2023-03-29T04:23:33.253Z,7.61
2023-03-29T04:25:59.943Z,7.67
2023-03-29T04:28:26.658Z,7.65
2023-03-29T04:30:53.350Z,7.69
2023-03-29T04:33:20.234Z,7.73
2023-03-29T04:35:47.099Z,7.67
2023-03-29T04:38:13.819Z,7.80
2023-03-29T04:40:40.566Z,7.84
2023-03-29T04:43:07.243Z,7.84
2023-03-29T04:45:33.940Z,7.82
2023-03-29T04:48:00.722Z,7.84
2023-03-29T04:50:28.163Z,7.90
2023-03-29T04:52:54.783Z,7.97
2023-03-29T04:55:21.536Z,7.97
2023-03-29T04:57:48.266Z,8.03
2023-03-29T05:00:15.759Z,8.00
2023-03-29T05:02:46.116Z,8.09
2023-03-29T05:05:14.131Z,8.12
2023-03-29T05:07:41.172Z,7.92
2023-03-29T05:10:08.696Z,7.98
2023-03-29T05:12:35.533Z,8.07
2023-03-29T05:15:02.621Z,8.17
2023-03-29T05:17:29.317Z,8.06
2023-03-29T05:19:55.960Z,8.09
2023-03-29T05:22:23.630Z,8.07
2023-03-29T05:24:51.771Z,8.04
2023-03-29T05:27:18.968Z,8.02
2023-03-29T05:29:45.643Z,7.97
2023-03-29T05:32:13.177Z,7.94
2023-03-29T05:34:40.004Z,7.95
2023-03-29T05:37:06.741Z,7.82
2023-03-29T05:39:35.741Z,7.90
2023-03-29T05:42:04.772Z,8.04
2023-03-29T05:44:31.777Z,7.91
2023-03-29T05:46:58.535Z,8.10
2023-03-29T05:51:59.930Z,8.29
2023-03-29T05:54:26.744Z,8.36
2023-03-29T05:56:53.523Z,8.31
2023-03-29T05:59:20.407Z,8.36
2023-03-29T06:01:47.238Z,8.46
2023-03-29T06:04:15.209Z,8.44
2023-03-29T06:06:42.480Z,8.62
2023-03-29T06:09:10.137Z,8.62
2023-03-29T06:11:36.977Z,8.63
2023-03-29T06:14:03.794Z,8.70
2023-03-29T06:16:30.961Z,8.80
2023-03-29T06:18:57.815Z,8.90
2023-03-29T06:21:26.786Z,8.95
2023-03-29T06:23:53.461Z,8.91
2023-03-29T06:26:20.357Z,8.88
2023-03-29T06:28:49.197Z,8.84
2023-03-29T06:31:17.500Z,8.82
2023-03-29T06:33:44.336Z,8.84
2023-03-29T06:36:12.239Z,8.85
2023-03-29T06:38:39.019Z,8.91
2023-03-29T06:41:07.826Z,8.83
2023-03-29T06:43:35.099Z,8.88
2023-03-29T06:46:02.176Z,8.80
2023-03-29T06:48:29.302Z,8.75
2023-03-29T06:50:56.717Z,8.75
2023-03-29T06:53:23.446Z,8.79
2023-03-29T06:55:52.028Z,8.85
2023-03-29T06:58:18.812Z,8.90
2023-03-29T07:00:45.959Z,9.00
2023-03-29T07:03:20.143Z,9.05
2023-03-29T07:08:31.450Z,9.17
2023-03-29T07:10:59.597Z,9.19
2023-03-29T07:13:26.600Z,9.27
2023-03-29T07:15:53.477Z,9.42
2023-03-29T07:18:20.479Z,9.47
2023-03-29T07:20:48.597Z,9.58
2023-03-29T07:23:15.803Z,9.49
2023-03-29T07:25:42.517Z,9.47
2023-03-29T07:28:09.349Z,9.51
2023-03-29T07:30:37.341Z,9.59
2023-03-29T07:33:04.755Z,9.64
2023-03-29T07:35:31.547Z,9.68
2023-03-29T07:37:58.838Z,9.55
2023-03-29T07:40:26.604Z,9.48
2023-03-29T07:42:55.340Z,9.44
2023-03-29T07:45:26.721Z,9.47
2023-03-29T07:47:57.389Z,9.47
2023-03-29T07:50:24.863Z,9.60
2023-03-29T07:52:51.815Z,9.71
2023-03-29T07:55:18.685Z,9.76
2023-03-29T07:57:45.526Z,9.78
2023-03-29T08:02:52.569Z,9.98
2023-03-29T08:05:37.952Z,10.05
2023-03-29T08:08:07.634Z,10.16
2023-03-29T08:13:15.606Z,10.39
2023-03-29T08:15:46.423Z,10.36
2023-03-29T08:18:13.225Z,10.39
2023-03-29T08:20:40.238Z,10.36
2023-03-29T08:23:07.186Z,10.35
2023-03-29T08:25:35.384Z,10.40
2023-03-29T08:28:02.236Z,10.64
2023-03-29T08:30:29.113Z,10.84
2023-03-29T08:32:56.539Z,10.86
2023-03-29T08:35:23.349Z,10.82
2023-03-29T08:37:50.061Z,10.84
2023-03-29T08:40:21.614Z,10.99
2023-03-29T08:46:00.353Z,11.03
2023-03-29T08:48:42.540Z,11.08
2023-03-29T08:51:33.443Z,10.96
2023-03-29T08:54:04.392Z,11.01
2023-03-29T08:56:35.015Z,10.99
2023-03-29T08:59:02.365Z,11.09
2023-03-29T09:01:35.072Z,11.20
2023-03-29T09:04:09.985Z,11.21
2023-03-29T09:06:39.779Z,11.24
2023-03-29T09:09:15.430Z,11.26
2023-03-29T09:11:49.220Z,11.22
2023-03-29T09:14:27.650Z,11.33
2023-03-29T09:17:25.986Z,11.43
2023-03-29T09:20:07.990Z,11.52
2023-03-29T09:22:46.859Z,11.45
2023-03-29T09:25:34.498Z,11.54
2023-03-29T09:28:19.539Z,11.57
2023-03-29T09:30:56.778Z,11.73
2023-03-29T09:33:28.584Z,11.87
2023-03-29T09:36:12.457Z,11.94
2023-03-29T09:38:43.881Z,12.13
2023-03-29T09:41:29.672Z,12.37
2023-03-29T09:44:00.681Z,12.45
2023-03-29T09:46:36.588Z,12.41
2023-03-29T09:49:10.585Z,12.53
2023-03-29T09:51:38.702Z,12.54
2023-03-29T09:54:05.442Z,12.57
2023-03-29T09:56:32.675Z,12.72
2023-03-29T09:58:59.388Z,12.73
2023-03-29T10:01:37.338Z,12.70
2023-03-29T10:04:06.973Z,12.74
2023-03-29T10:06:34.568Z,12.76
2023-03-29T10:09:02.520Z,12.83
2023-03-29T10:11:34.992Z,12.87
2023-03-29T10:14:11.855Z,12.98
2023-03-29T10:16:41.594Z,13.04
2023-03-29T10:19:28.501Z,13.14
2023-03-29T10:22:00.636Z,13.30
2023-03-29T10:24:27.840Z,13.30
2023-03-29T10:26:59.117Z,13.22
2023-03-29T10:29:28.147Z,13.44
2023-03-29T10:31:55.354Z,13.41
2023-03-29T10:34:26.273Z,13.44
2023-03-29T10:37:01.450Z,13.40
2023-03-29T10:39:33.033Z,13.51
2023-03-29T10:42:01.396Z,13.58
2023-03-29T10:44:33.283Z,13.70
2023-03-29T10:47:16.293Z,13.74
2023-03-29T10:49:47.419Z,13.51
2023-03-29T10:52:15.342Z,13.63
2023-03-29T10:54:42.309Z,13.53
2023-03-29T10:57:12.914Z,13.62
2023-03-29T10:59:46.453Z,13.65
2023-03-29T11:02:15.860Z,13.82
2023-03-29T11:04:45.267Z,13.93
2023-03-29T11:07:17.617Z,14.03
2023-03-29T11:09:55.904Z,14.44
2023-03-29T11:12:40.843Z,14.62
2023-03-29T11:15:22.563Z,14.65
2023-03-29T11:18:11.144Z,14.87
2023-03-29T11:20:45.896Z,14.90
2023-03-29T11:23:18.890Z,14.95
2023-03-29T11:26:00.467Z,15.17
2023-03-29T11:28:47.965Z,15.20
2023-03-29T11:31:44.168Z,15.20
2023-03-29T11:34:31.108Z,15.22
2023-03-29T11:37:27.074Z,15.34
2023-03-29T11:40:23.399Z,15.61
2023-03-29T11:42:55.061Z,15.69
2023-03-29T11:45:40.682Z,15.96
2023-03-29T11:48:16.901Z,15.76
2023-03-29T11:50:51.211Z,15.87
2023-03-29T11:53:26.875Z,16.02
2023-03-29T11:55:55.655Z,15.90
2023-03-29T11:58:31.514Z,16.50
2023-03-29T12:01:04.550Z,16.66
2023-03-29T12:03:47.500Z,16.13
2023-03-29T12:06:34.665Z,16.17
2023-03-29T12:09:14.255Z,16.15
2023-03-29T12:11:54.609Z,16.25
2023-03-29T12:14:28.421Z,16.43
2023-03-29T12:17:03.335Z,16.44
2023-03-29T12:19:43.637Z,16.47
2023-03-29T12:22:10.829Z,16.50
2023-03-29T12:24:42.116Z,16.28
2023-03-29T12:30:12.916Z,15.97
2023-03-29T12:38:45.748Z,16.10
2023-03-29T12:41:19.285Z,16.21
2023-03-29T12:43:46.956Z,16.42
2023-03-29T12:46:24.615Z,16.54
2023-03-29T12:49:06.188Z,16.69
2023-03-29T12:51:35.759Z,16.64
2023-03-29T12:54:26.218Z,16.63
2023-03-29T12:57:00.703Z,16.58
2023-03-29T12:59:43.884Z,16.66
2023-03-29T13:02:14.159Z,16.72
2023-03-29T13:04:44.023Z,16.81
2023-03-29T13:07:22.948Z,16.73
2023-03-29T13:10:02.455Z,16.87
2023-03-29T13:12:35.089Z,17.04
2023-03-29T13:15:08.459Z,17.22
2023-03-29T13:17:59.363Z,17.23
2023-03-29T13:20:47.314Z,17.07
2023-03-29T13:23:28.693Z,17.02
2023-03-29T13:29:48.085Z,16.73
2023-03-29T13:32:27.782Z,16.64
2023-03-29T13:35:10.780Z,16.55
2023-03-29T13:37:58.474Z,16.54
2023-03-29T13:40:31.962Z,16.47
2023-03-29T13:43:19.442Z,16.32
2023-03-29T13:46:17.898Z,16.29
2023-03-29T13:48:47.560Z,16.22
2023-03-29T13:51:14.244Z,16.20
2023-03-29T13:53:52.161Z,16.23
2023-03-29T13:59:34.434Z,16.28
2023-03-29T14:02:03.298Z,16.23
2023-03-29T14:04:38.189Z,16.17
2023-03-29T14:07:08.408Z,16.12
2023-03-29T14:09:41.609Z,15.97
2023-03-29T14:14:58.718Z,15.88
2023-03-29T14:17:27.351Z,15.73
2023-03-29T14:19:58.429Z,15.52
2023-03-29T14:22:30.939Z,15.41
2023-03-29T14:25:02.267Z,15.20
2023-03-29T14:27:32.054Z,15.12
2023-03-29T14:32:32.577Z,14.84
2023-03-29T14:35:00.845Z,14.82
2023-03-29T14:37:29.336Z,14.69
2023-03-29T14:39:58.748Z,14.58
2023-03-29T14:42:28.073Z,14.53
2023-03-29T14:45:06.520Z,14.41
2023-03-29T14:47:34.088Z,14.53
2023-03-29T14:50:02.077Z,14.47
2023-03-29T14:52:30.731Z,14.49
2023-03-29T14:55:00.562Z,14.55
2023-03-29T14:57:33.674Z,14.55
2023-03-29T15:00:13.645Z,14.47
2023-03-29T15:02:58.917Z,14.59
2023-03-29T15:05:44.458Z,14.58
2023-03-29T15:08:18.092Z,14.65
2023-03-29T15:10:45.158Z,14.67
2023-03-29T15:13:18.808Z,14.70
2023-03-29T15:15:46.525Z,14.64
2023-03-29T15:18:17.178Z,14.72
2023-03-29T15:20:45.268Z,14.60
2023-03-29T15:23:14.490Z,14.53
2023-03-29T15:25:56.173Z,14.56
2023-03-29T15:28:26.245Z,14.61
2023-03-29T15:31:07.284Z,14.56
2023-03-29T15:33:37.937Z,14.60
2023-03-29T15:36:07.162Z,14.69
2023-03-29T15:38:43.277Z,14.71
2023-03-29T15:41:10.830Z,14.68
2023-03-29T15:43:38.094Z,14.72
2023-03-29T15:46:05.298Z,14.74
2023-03-29T15:48:34.046Z,14.75
2023-03-29T15:51:06.095Z,14.61
2023-03-29T15:53:33.515Z,14.75
2023-03-29T15:56:02.422Z,14.75
2023-03-29T15:58:31.865Z,14.60
2023-03-29T16:03:54.894Z,14.57
2023-03-29T16:06:24.034Z,14.65
2023-03-29T16:08:50.783Z,14.66
2023-03-29T16:11:17.677Z,14.64
2023-03-29T16:13:44.438Z,14.65
2023-03-29T16:16:11.694Z,14.65
2023-03-29T16:18:38.425Z,14.51
2023-03-29T16:21:05.670Z,14.53
2023-03-29T16:23:32.819Z,14.45
2023-03-29T16:25:59.714Z,14.47
2023-03-29T16:30:57.647Z,14.34
2023-03-29T16:33:24.358Z,14.29
2023-03-29T16:35:51.360Z,14.32
2023-03-29T16:40:51.021Z,14.47
2023-03-29T16:43:18.935Z,14.43
2023-03-29T16:45:45.693Z,14.33
2023-03-29T16:50:51.531Z,14.38
2023-03-29T16:53:18.923Z,14.37
2023-03-29T16:55:46.854Z,14.33
2023-03-29T16:58:13.618Z,14.32
2023-03-29T17:03:12.456Z,14.26
2023-03-29T17:05:41.751Z,14.28
2023-03-29T17:08:10.641Z,14.17
2023-03-29T17:10:40.868Z,14.22
2023-03-29T17:13:08.312Z,14.12
2023-03-29T17:15:36.713Z,14.05
2023-03-29T17:18:05.805Z,14.03
2023-03-29T17:20:32.545Z,14.00
2023-03-29T17:22:59.284Z,13.97
2023-03-29T17:25:26.243Z,13.91
2023-03-29T17:27:54.292Z,13.83
2023-03-29T17:30:21.063Z,13.84
2023-03-29T17:32:47.843Z,13.84
2023-03-29T17:35:14.765Z,13.83
2023-03-29T17:37:42.211Z,13.69
2023-03-29T17:40:10.715Z,13.64
2023-03-29T17:42:37.411Z,13.65
2023-03-29T17:45:04.628Z,13.74
2023-03-29T17:47:31.419Z,13.64
2023-03-29T17:49:58.117Z,13.69
2023-03-29T17:57:43.176Z,13.62
2023-03-29T18:00:14.898Z,13.66
2023-03-29T18:02:42.114Z,13.70
2023-03-29T18:05:10.408Z,13.59
2023-03-29T18:07:37.595Z,13.56
2023-03-29T18:10:05.412Z,13.55
2023-03-29T18:12:32.134Z,13.43
2023-03-29T18:14:59.620Z,13.41
2023-03-29T18:17:27.685Z,13.46
2023-03-29T18:19:54.613Z,13.51
2023-03-29T18:22:21.960Z,13.48
2023-03-29T18:24:49.494Z,13.45
2023-03-29T18:27:16.197Z,13.42
2023-03-29T18:29:44.243Z,13.43
2023-03-29T18:32:11.776Z,13.37
2023-03-29T18:34:39.502Z,13.38
2023-03-29T18:37:06.486Z,13.25
2023-03-29T18:39:34.999Z,13.25
2023-03-29T18:42:01.851Z,13.28
2023-03-29T18:44:28.971Z,13.21
2023-03-29T18:46:59.163Z,13.21
2023-03-29T18:49:26.174Z,13.17
2023-03-29T18:51:54.596Z,13.26
2023-03-29T18:54:24.409Z,13.24
2023-03-29T18:56:51.662Z,13.28
2023-03-29T19:01:50.101Z,13.26
2023-03-29T19:04:16.846Z,13.23
2023-03-29T19:06:46.398Z,13.19
2023-03-29T19:09:13.218Z,13.20
2023-03-29T19:11:39.827Z,13.19
2023-03-29T19:14:09.196Z,13.19
2023-03-29T19:16:36.440Z,13.16
2023-03-29T19:19:05.192Z,13.25
2023-03-29T19:21:32.597Z,13.29
2023-03-29T19:24:01.227Z,13.43
2023-03-29T19:26:29.739Z,13.38
2023-03-29T19:28:56.545Z,13.36
2023-03-29T19:31:23.490Z,13.32
2023-03-29T19:33:50.115Z,13.34
2023-03-29T19:36:17.304Z,13.30
2023-03-29T19:38:45.011Z,13.34
2023-03-29T19:43:43.297Z,13.38
2023-03-29T19:46:11.962Z,13.51
2023-03-29T19:48:39.385Z,13.53
2023-03-29T19:51:06.156Z,13.59
2023-03-29T19:53:33.077Z,13.61
2023-03-29T19:55:59.941Z,13.58
2023-03-29T19:58:26.703Z,13.56
2023-03-29T20:00:58.198Z,13.62
2023-03-29T20:03:28.569Z,13.65
2023-03-29T20:05:58.238Z,13.58
2023-03-29T20:08:25.167Z,13.62
2023-03-29T20:11:03.935Z,13.59
2023-03-29T20:13:38.124Z,13.61
2023-03-29T20:16:08.658Z,13.62
2023-03-29T20:18:38.546Z,13.65
2023-03-29T20:21:07.441Z,13.65
2023-03-29T20:23:34.977Z,13.70
2023-03-29T20:26:01.855Z,13.69
2023-03-29T20:28:28.586Z,13.74
2023-03-29T20:30:55.652Z,13.81
2023-03-29T20:33:22.466Z,13.82
2023-03-29T20:35:49.473Z,13.82
2023-03-29T20:38:16.442Z,13.83
2023-03-29T20:40:43.309Z,13.89
2023-03-29T20:43:13.733Z,13.87
2023-03-29T20:45:52.728Z,13.90
2023-03-29T20:48:23.595Z,13.88
2023-03-29T20:50:50.955Z,13.84
2023-03-29T20:53:18.529Z,13.91
2023-03-29T20:58:16.591Z,14.03
2023-03-29T21:00:44.079Z,14.06
2023-03-29T21:03:11.529Z,14.12
2023-03-29T21:05:39.054Z,14.16
2023-03-29T21:08:06.190Z,14.18
2023-03-29T21:10:33.089Z,14.21
2023-03-29T21:13:00.767Z,14.25
2023-03-29T21:15:28.818Z,14.20
2023-03-29T21:17:55.703Z,14.19
2023-03-29T21:20:22.545Z,14.28
2023-03-29T21:22:49.238Z,14.24
2023-03-29T21:25:16.159Z,14.29
2023-03-29T21:27:43.354Z,14.40
2023-03-29T21:30:11.187Z,14.44
2023-03-29T21:32:38.132Z,14.57
2023-03-29T21:35:05.392Z,14.51
2023-03-29T21:37:32.081Z,14.46
2023-03-29T21:39:58.796Z,14.48
2023-03-29T21:42:25.775Z,14.47
2023-03-29T21:44:52.461Z,14.50
2023-03-29T21:47:19.225Z,14.47
2023-03-29T21:49:45.913Z,14.46
2023-03-29T21:52:13.150Z,14.45
2023-03-29T21:54:39.821Z,14.42
2023-03-29T21:57:06.571Z,14.39
2023-03-29T21:59:33.353Z,14.38
2023-03-29T22:02:00.147Z,14.38
2023-03-29T22:04:36.488Z,14.40
2023-03-29T22:09:35.697Z,14.38
2023-03-29T22:12:04.118Z,14.37
2023-03-29T22:14:35.212Z,14.37
2023-03-29T22:17:03.298Z,14.41
2023-03-29T22:19:29.987Z,14.40
2023-03-29T22:22:01.696Z,14.40
2023-03-29T22:24:29.335Z,14.42
2023-03-29T22:26:56.393Z,14.44
2023-03-29T22:31:54.595Z,14.43
2023-03-29T22:34:21.490Z,14.40
2023-03-29T22:36:48.270Z,14.34
2023-03-29T22:39:14.946Z,14.36
2023-03-29T22:41:42.264Z,14.31
2023-03-29T22:44:09.056Z,14.38
2023-03-29T22:46:35.907Z,14.41
2023-03-29T22:49:02.776Z,14.41
2023-03-29T22:51:29.542Z,14.46
2023-03-29T22:53:56.394Z,14.50
2023-03-29T22:56:23.551Z,14.46
2023-03-29T22:58:50.453Z,14.47
2023-03-29T23:01:17.181Z,14.46
2023-03-29T23:03:43.953Z,14.47
2023-03-29T23:06:10.781Z,14.49
2023-03-29T23:08:37.453Z,14.55
2023-03-29T23:11:04.692Z,14.56
2023-03-29T23:13:33.758Z,14.53
2023-03-29T23:16:02.559Z,14.55
2023-03-29T23:18:31.755Z,14.57
2023-03-29T23:20:59.149Z,14.66
2023-03-29T23:26:00.143Z,14.63
2023-03-29T23:28:30.757Z,14.70
2023-03-29T23:33:35.786Z,14.75
2023-03-29T23:36:04.787Z,14.70
2023-03-29T23:38:34.400Z,14.66
2023-03-29T23:41:03.386Z,14.63
2023-03-29T23:43:35.504Z,14.64
2023-03-29T23:46:05.417Z,14.70
2023-03-29T23:48:32.965Z,14.83
2023-03-29T23:51:00.231Z,14.93
2023-03-29T23:53:29.108Z,14.95
2023-03-29T23:56:00.623Z,15.11
2023-03-29T23:58:32.944Z,15.15
